Time;durP1;ratioP1;P1;durP2;ratioP2;P2;SDS_P1;SDS_P2;PMS_P1;PMS_P2;Temp;Humidity;BMP_temperature;BMP_pressure;BME280_temperature;BME280_humidity;BME280_pressure;Samples;Min_cycle;Max_cycle;Signal;HPM_P1;HPM_P2
2021/01/12 00:01:42;;;;;;;16.63;9.07;;;;;;;1.22;74.97;100151.06;4998380;28;20039;-53
2021/01/12 00:04:09;;;;;;;14.88;9.50;;;;;;;1.20;74.83;100150.09;5000025;28;20053;-59
2021/01/12 00:06:36;;;;;;;15.02;8.50;;;;;;;1.21;74.38;100159.41;4998119;28;20074;-56
2021/01/12 00:09:03;;;;;;;14.45;8.52;;;;;;;1.21;74.89;100150.19;5000699;28;20100;-56
2021/01/12 00:11:30;;;;;;;13.50;8.38;;;;;;;1.24;74.75;100150.34;4997798;28;20051;-57
2021/01/12 00:13:57;;;;;;;15.40;8.82;;;;;;;1.22;74.98;100151.91;5001843;28;20046;-54
2021/01/12 00:16:24;;;;;;;13.63;8.38;;;;;;;1.32;74.59;100149.88;4998150;28;20422;-57
2021/01/12 00:18:51;;;;;;;14.55;8.88;;;;;;;1.35;74.89;100150.06;5000237;28;20077;-51
2021/01/12 00:21:25;;;;;;;14.20;8.60;;;;;;;1.33;74.54;100139.88;4999153;28;20103;-53
2021/01/12 00:23:52;;;;;;;14.10;8.45;;;;;;;1.37;74.72;100145.97;5000475;28;20387;-53
2021/01/12 00:26:19;;;;;;;15.15;8.27;;;;;;;1.34;74.39;100136.59;4998633;28;20650;-53
2021/01/12 00:28:45;;;;;;;14.60;8.98;;;;;;;1.38;74.84;100125.84;4998933;28;20046;-56
2021/01/12 00:31:12;;;;;;;14.70;8.65;;;;;;;1.32;74.55;100119.63;4999367;28;20095;-57
2021/01/12 00:33:38;;;;;;;15.18;9.15;;;;;;;1.28;75.27;100116.94;4997988;28;20042;-57
2021/01/12 00:36:08;;;;;;;14.43;8.50;;;;;;;1.42;74.97;100122.69;4999903;28;20104;-50
2021/01/12 00:38:35;;;;;;;18.38;9.65;;;;;;;1.40;75.18;100111.69;4997331;28;20050;-54
2021/01/12 00:41:07;;;;;;;16.48;9.65;;;;;;;1.28;75.00;100101.78;5000783;28;20046;-52
2021/01/12 00:43:34;;;;;;;16.45;9.18;;;;;;;1.36;75.10;100116.47;4997030;28;20052;-57
2021/01/12 00:46:01;;;;;;;14.60;9.43;;;;;;;1.32;75.09;100104.50;4999926;28;20052;-56
2021/01/12 00:48:27;;;;;;;16.75;10.18;;;;;;;1.32;75.25;100109.53;5000515;28;20096;-56
2021/01/12 00:50:53;;;;;;;16.73;10.43;;;;;;;1.41;74.97;100099.94;5007303;28;20477;-56
2021/01/12 00:53:20;;;;;;;15.13;9.82;;;;;;;1.44;75.12;100105.16;4998140;28;20080;-53
2021/01/12 00:55:46;;;;;;;17.25;9.98;;;;;;;1.41;75.33;100097.41;4998554;28;20054;-55
2021/01/12 00:58:12;;;;;;;16.08;9.38;;;;;;;1.45;75.37;100096.78;4998803;28;20049;-56
2021/01/12 01:00:39;;;;;;;18.13;9.32;;;;;;;1.35;75.92;100087.88;4997745;28;20058;-54
2021/01/12 01:03:05;;;;;;;15.82;8.63;;;;;;;1.41;75.14;100083.13;4999022;28;20449;-53
2021/01/12 01:05:32;;;;;;;16.88;9.50;;;;;;;1.44;75.44;100074.88;4996853;28;20061;-56
2021/01/12 01:08:00;;;;;;;17.77;10.10;;;;;;;1.46;75.18;100074.16;5007431;28;20100;-55
2021/01/12 01:10:26;;;;;;;15.82;9.38;;;;;;;1.44;75.40;100064.78;4996862;28;20046;-58
2021/01/12 01:12:52;;;;;;;16.08;10.13;;;;;;;1.43;75.82;100065.56;4999695;28;20123;-54
2021/01/12 01:15:19;;;;;;;16.95;10.43;;;;;;;1.41;75.52;100057.91;5001221;28;21116;-53
2021/01/12 01:17:45;;;;;;;18.65;9.82;;;;;;;1.48;75.39;100049.88;4997940;28;20502;-54
2021/01/12 01:20:12;;;;;;;17.35;9.63;;;;;;;1.48;75.25;100049.03;4998879;28;20592;-52
2021/01/12 01:22:39;;;;;;;16.30;9.88;;;;;;;1.48;75.30;100042.31;4997354;28;20053;-51
2021/01/12 01:25:06;;;;;;;13.32;7.75;;;;;;;1.46;75.38;100027.88;4999529;28;20046;-53
2021/01/12 01:27:33;;;;;;;16.88;9.85;;;;;;;1.47;75.85;100032.13;4999636;28;20161;-49
2021/01/12 01:30:00;;;;;;;14.98;9.30;;;;;;;1.49;75.46;100023.00;5003322;28;20520;-54
2021/01/12 01:32:27;;;;;;;17.10;10.13;;;;;;;1.49;75.46;100033.97;4996830;28;20054;-54
2021/01/12 01:34:53;;;;;;;16.88;9.75;;;;;;;1.50;75.23;100028.13;4999165;28;20152;-49
2021/01/12 01:37:19;;;;;;;16.35;9.27;;;;;;;1.48;75.79;100012.06;5000598;28;20053;-55
2021/01/12 01:39:46;;;;;;;14.85;9.35;;;;;;;1.52;75.24;100013.03;5001968;28;20605;-53
2021/01/12 01:42:12;;;;;;;16.25;10.02;;;;;;;1.49;75.59;100005.34;4998551;28;20097;-55
2021/01/12 01:44:39;;;;;;;16.23;10.02;;;;;;;1.56;75.45;99998.94;4997193;28;20545;-55
2021/01/12 01:47:05;;;;;;;14.93;9.52;;;;;;;1.48;75.46;99988.47;5006621;28;20061;-50
2021/01/12 01:49:32;;;;;;;20.27;9.52;;;;;;;1.55;75.73;99993.03;4996151;28;20465;-53
2021/01/12 01:51:59;;;;;;;16.02;9.85;;;;;;;1.60;75.63;99990.75;4999986;28;20053;-54
2021/01/12 01:54:27;;;;;;;16.40;10.02;;;;;;;1.65;75.71;99977.56;5003215;28;20092;-51
2021/01/12 01:56:54;;;;;;;17.30;10.23;;;;;;;1.59;75.32;99987.34;5002757;28;20041;-55
2021/01/12 01:59:20;;;;;;;15.77;9.55;;;;;;;1.57;75.64;99978.81;5001133;28;20050;-54
2021/01/12 02:01:47;;;;;;;15.18;9.80;;;;;;;1.55;75.79;99966.94;5002038;28;20318;-58
2021/01/12 02:04:36;;;;;;;17.10;10.05;;;;;;;1.53;75.26;99962.69;5003086;28;20461;-52
2021/01/12 02:07:03;;;;;;;17.30;10.10;;;;;;;1.53;75.64;99967.72;4999355;28;20143;-57
2021/01/12 02:09:41;;;;;;;16.30;9.30;;;;;;;1.55;76.06;99959.38;4991990;28;20050;-55
2021/01/12 02:12:14;;;;;;;16.25;10.23;;;;;;;1.60;75.68;99960.47;4996108;28;20050;-54
2021/01/12 02:14:44;;;;;;;17.65;9.90;;;;;;;1.52;76.03;99960.94;5003883;28;20070;-54
2021/01/12 02:17:10;;;;;;;18.85;10.50;;;;;;;1.42;78.34;99950.31;5002183;28;20060;-51
2021/01/12 02:19:38;;;;;;;17.42;10.20;;;;;;;1.34;79.93;99947.44;5004069;28;20056;-53
2021/01/12 02:22:07;;;;;;;19.20;11.73;;;;;;;1.27;80.53;99950.41;5003551;28;20057;-58
2021/01/12 02:24:35;;;;;;;20.65;11.20;;;;;;;1.22;80.81;99934.19;5006583;28;20050;-53
2021/01/12 02:27:05;;;;;;;21.38;12.85;;;;;;;1.20;80.54;99936.66;5006884;28;20046;-53
2021/01/12 02:29:32;;;;;;;19.35;11.73;;;;;;;1.30;81.42;99942.16;5003269;28;20038;-55
2021/01/12 02:31:59;;;;;;;19.05;11.23;;;;;;;1.17;82.08;99933.09;5006093;28;20050;-56
2021/01/12 02:34:28;;;;;;;21.70;12.35;;;;;;;0.98;84.41;99921.22;4999374;28;20566;-54
2021/01/12 02:36:56;;;;;;;24.02;13.73;;;;;;;0.99;85.92;99916.25;5009215;28;20050;-53
2021/01/12 02:39:22;;;;;;;26.08;13.93;;;;;;;0.71;88.60;99905.53;5003490;28;22193;-55
2021/01/12 02:41:49;;;;;;;23.45;13.55;;;;;;;0.53;91.70;99902.06;5001623;28;20120;-53
2021/01/12 02:44:21;;;;;;;29.25;13.90;;;;;;;0.42;93.17;99902.34;5004761;28;20049;-57
2021/01/12 02:46:49;;;;;;;25.98;14.90;;;;;;;0.37;94.46;99891.19;5001552;28;20193;-52
2021/01/12 02:49:15;;;;;;;32.00;16.17;;;;;;;0.31;95.78;99888.31;5004901;28;20084;-56
2021/01/12 02:51:42;;;;;;;31.95;18.83;;;;;;;0.23;96.31;99890.44;5004668;28;20051;-54
2021/01/12 02:54:09;;;;;;;33.50;18.80;;;;;;;0.30;96.89;99883.22;5002024;28;20104;-52
2021/01/12 02:56:35;;;;;;;36.88;18.77;;;;;;;0.26;97.38;99874.63;5010746;28;20054;-54
2021/01/12 02:59:02;;;;;;;33.95;18.55;;;;;;;0.30;97.66;99863.94;5002853;28;20395;-53
2021/01/12 03:01:29;;;;;;;34.50;18.75;;;;;;;0.19;98.42;99863.38;5006271;28;20042;-56
2021/01/12 03:03:55;;;;;;;35.58;18.70;;;;;;;0.24;99.00;99861.09;5002502;28;20049;-51
2021/01/12 03:06:24;;;;;;;39.92;19.27;;;;;;;0.20;99.04;99847.47;4999611;28;20053;-57
2021/01/12 03:08:51;;;;;;;40.88;20.75;;;;;;;0.21;99.65;99855.88;5001676;28;20053;-54
2021/01/12 03:11:17;;;;;;;41.40;21.02;;;;;;;0.17;99.97;99852.34;4995949;28;20132;-53
2021/01/12 03:13:44;;;;;;;40.22;20.98;;;;;;;0.22;100.00;99838.34;5004077;28;20057;-52
2021/01/12 03:16:10;;;;;;;43.47;22.50;;;;;;;0.19;100.00;99830.66;5000886;28;20058;-54
2021/01/12 03:18:37;;;;;;;44.25;22.25;;;;;;;0.22;100.00;99827.41;5002970;28;20057;-55
2021/01/12 03:21:03;;;;;;;38.80;20.33;;;;;;;0.16;100.00;99835.50;5002239;28;20046;-55
2021/01/12 03:23:30;;;;;;;42.53;23.00;;;;;;;0.26;100.00;99819.22;4999801;28;20046;-55
2021/01/12 03:25:56;;;;;;;44.42;22.88;;;;;;;0.20;100.00;99824.81;5003298;28;20045;-55
2021/01/12 03:28:23;;;;;;;45.40;22.30;;;;;;;0.25;100.00;99815.00;5003720;28;20061;-52
2021/01/12 03:30:49;;;;;;;43.78;22.70;;;;;;;0.25;100.00;99809.94;5003980;28;20822;-55
2021/01/12 03:33:16;;;;;;;45.88;21.88;;;;;;;0.25;100.00;99797.38;5000423;28;20057;-52
2021/01/12 03:35:42;;;;;;;45.35;21.30;;;;;;;0.24;100.00;99798.16;5003302;28;20504;-52
2021/01/12 03:38:08;;;;;;;44.60;23.50;;;;;;;0.18;100.00;99791.13;4996554;28;20058;-53
2021/01/12 03:40:35;;;;;;;45.17;22.17;;;;;;;0.21;100.00;99788.78;5001786;28;20049;-52
2021/01/12 03:43:01;;;;;;;43.88;20.77;;;;;;;0.19;100.00;99779.44;5005292;28;20050;-52
2021/01/12 03:45:28;;;;;;;40.60;19.45;;;;;;;0.20;100.00;99776.13;4997892;28;20053;-52
2021/01/12 03:47:55;;;;;;;49.10;26.35;;;;;;;0.29;100.00;99785.81;5004869;28;20054;-60
2021/01/12 03:50:25;;;;;;;45.50;24.38;;;;;;;0.25;100.00;99772.19;4998244;28;20556;-50
2021/01/12 03:52:54;;;;;;;49.17;24.95;;;;;;;0.24;100.00;99768.81;5000117;28;20049;-49
2021/01/12 03:55:21;;;;;;;46.95;23.30;;;;;;;0.31;100.00;99766.59;5001666;28;20053;-50
2021/01/12 03:57:48;;;;;;;46.13;22.88;;;;;;;0.28;100.00;99766.44;4999581;28;20047;-51
2021/01/12 04:00:16;;;;;;;52.17;24.73;;;;;;;0.30;100.00;99770.78;5002648;28;20484;-50
2021/01/12 04:02:42;;;;;;;49.35;24.70;;;;;;;0.34;100.00;99761.72;5006098;28;20052;-49
2021/01/12 04:05:10;;;;;;;44.17;23.23;;;;;;;0.28;100.00;99763.91;5002581;28;20144;-55
2021/01/12 04:07:37;;;;;;;45.78;23.20;;;;;;;0.27;100.00;99754.63;4996988;28;20061;-53
2021/01/12 04:10:05;;;;;;;45.17;24.75;;;;;;;0.31;100.00;99759.91;5000241;28;20058;-52
2021/01/12 04:12:33;;;;;;;46.95;24.67;;;;;;;0.31;100.00;99754.00;4997488;28;20046;-54
2021/01/12 04:14:59;;;;;;;44.65;23.55;;;;;;;0.31;100.00;99743.94;5000507;28;20041;-50
2021/01/12 04:17:26;;;;;;;44.60;24.42;;;;;;;0.32;100.00;99749.03;4997062;28;20058;-53
2021/01/12 04:19:52;;;;;;;42.85;22.45;;;;;;;0.38;100.00;99738.44;5003186;28;20061;-53
2021/01/12 04:22:19;;;;;;;50.72;25.63;;;;;;;0.35;100.00;99739.13;5001340;28;20077;-54
2021/01/12 04:24:45;;;;;;;41.75;23.05;;;;;;;0.30;100.00;99735.53;4998100;28;20127;-51
2021/01/12 04:27:11;;;;;;;51.22;25.77;;;;;;;0.34;100.00;99726.47;4998338;28;20317;-50
2021/01/12 04:29:38;;;;;;;46.85;23.20;;;;;;;0.30;100.00;99724.59;5001059;28;20494;-53
2021/01/12 04:32:04;;;;;;;46.00;24.98;;;;;;;0.32;100.00;99723.00;5000196;28;20398;-52
2021/01/12 04:34:31;;;;;;;44.47;24.45;;;;;;;0.37;100.00;99724.09;4996554;28;20141;-53
2021/01/12 04:36:58;;;;;;;51.85;25.23;;;;;;;0.35;100.00;99723.16;5003753;28;20533;-52
2021/01/12 04:39:27;;;;;;;46.38;25.55;;;;;;;0.30;100.00;99717.03;4997037;28;20074;-51
2021/01/12 04:41:54;;;;;;;46.53;24.52;;;;;;;0.39;100.00;99720.03;4999945;28;20054;-51
2021/01/12 04:44:20;;;;;;;43.90;23.00;;;;;;;0.37;100.00;99714.91;4998849;28;20056;-49
2021/01/12 04:46:46;;;;;;;46.17;24.27;;;;;;;0.39;100.00;99712.47;4999486;28;20049;-54
2021/01/12 04:49:13;;;;;;;45.30;25.77;;;;;;;0.41;100.00;99700.81;4999230;28;20456;-55
2021/01/12 04:51:40;;;;;;;49.88;25.25;;;;;;;0.37;100.00;99697.28;4998438;28;20046;-51
2021/01/12 04:54:06;;;;;;;46.28;24.98;;;;;;;0.38;100.00;99693.13;5000118;28;20502;-54
2021/01/12 04:56:32;;;;;;;52.05;27.25;;;;;;;0.40;100.00;99692.41;4997936;28;20046;-52
2021/01/12 04:58:59;;;;;;;45.55;23.38;;;;;;;0.36;100.00;99687.13;5000971;28;20050;-51
2021/01/12 05:01:29;;;;;;;43.15;25.80;;;;;;;0.39;100.00;99687.28;5000726;28;20046;-48
2021/01/12 05:03:56;;;;;;;56.13;26.17;;;;;;;0.38;100.00;99685.56;5004197;28;20057;-53
2021/01/12 05:06:26;;;;;;;42.20;23.60;;;;;;;0.40;100.00;99684.84;4998016;28;20050;-51
2021/01/12 05:08:57;;;;;;;47.72;23.33;;;;;;;0.36;100.00;99682.09;5005173;28;20568;-53
2021/01/12 05:11:32;;;;;;;46.38;22.50;;;;;;;0.35;100.00;99665.25;4998084;28;20054;-52
2021/01/12 05:14:02;;;;;;;43.47;24.98;;;;;;;0.38;100.00;99676.34;4996862;28;20061;-53
2021/01/12 05:16:28;;;;;;;41.58;25.25;;;;;;;0.30;100.00;99662.50;5000268;28;20043;-56
2021/01/12 05:18:56;;;;;;;42.58;23.45;;;;;;;0.41;100.00;99663.03;5002047;28;20073;-51
2021/01/12 05:21:24;;;;;;;44.22;23.98;;;;;;;0.37;100.00;99651.09;4998129;28;20053;-56
2021/01/12 05:24:05;;;;;;;47.97;25.70;;;;;;;0.42;100.00;99659.75;4995448;28;20053;-56
2021/01/12 05:26:36;;;;;;;43.50;24.27;;;;;;;0.44;100.00;99648.09;4997116;28;20050;-50
2021/01/12 05:29:04;;;;;;;42.70;23.52;;;;;;;0.43;100.00;99652.25;5000968;28;20053;-55
2021/01/12 05:31:32;;;;;;;33.00;17.95;;;;;;;0.36;100.00;99641.81;4996994;28;20406;-52
2021/01/12 05:34:09;;;;;;;44.83;24.13;;;;;;;0.45;100.00;99637.22;5004267;28;20052;-54
2021/01/12 05:36:50;;;;;;;44.33;23.67;;;;;;;0.46;100.00;99628.88;4996819;28;20406;-53
2021/01/12 05:39:24;;;;;;;43.45;24.23;;;;;;;0.45;100.00;99627.16;4998495;28;20050;-54
2021/01/12 05:41:52;;;;;;;42.65;23.60;;;;;;;0.46;100.00;99626.34;4999353;28;20109;-51
2021/01/12 05:44:22;;;;;;;43.95;24.70;;;;;;;0.51;100.00;99624.94;5000459;28;20084;-54
2021/01/12 05:46:51;;;;;;;41.10;23.13;;;;;;;0.49;100.00;99634.06;5002168;28;20065;-52
2021/01/12 05:49:20;;;;;;;42.20;24.35;;;;;;;0.40;100.00;99626.94;4996349;28;20089;-52
2021/01/12 05:51:48;;;;;;;42.75;24.30;;;;;;;0.47;100.00;99621.41;4998363;28;20070;-55
2021/01/12 05:54:27;;;;;;;43.55;24.58;;;;;;;0.48;100.00;99614.72;4997831;28;20050;-58
2021/01/12 05:56:57;;;;;;;44.08;23.65;;;;;;;0.46;100.00;99619.69;4998604;28;20208;-52
2021/01/12 05:59:26;;;;;;;45.67;24.67;;;;;;;0.50;100.00;99618.16;4997036;28;20062;-54
2021/01/12 06:01:57;;;;;;;40.00;21.50;;;;;;;0.46;100.00;99609.63;5002248;28;20054;-52
2021/01/12 06:04:24;;;;;;;42.95;22.65;;;;;;;0.50;100.00;99598.00;4996647;28;20054;-53
2021/01/12 06:06:53;;;;;;;39.33;20.23;;;;;;;0.46;100.00;99592.00;4998647;28;20080;-50
2021/01/12 06:09:22;;;;;;;40.15;23.73;;;;;;;0.49;100.00;99588.75;5000653;28;20045;-53
2021/01/12 06:11:50;;;;;;;38.42;19.45;;;;;;;0.47;100.00;99586.16;4998418;28;20391;-55
2021/01/12 06:14:21;;;;;;;40.95;22.77;;;;;;;0.49;100.00;99592.13;4997489;28;20100;-51
2021/01/12 06:16:48;;;;;;;42.83;23.88;;;;;;;0.47;100.00;99588.69;4997830;28;20046;-55
2021/01/12 06:19:18;;;;;;;42.55;23.42;;;;;;;0.42;100.00;99590.09;4997146;28;20567;-54
2021/01/12 06:21:53;;;;;;;40.88;23.27;;;;;;;0.49;100.00;99584.56;4997433;28;20101;-51
2021/01/12 06:24:35;;;;;;;39.25;22.55;;;;;;;0.56;100.00;99594.94;4997029;28;20077;-51
2021/01/12 06:27:06;;;;;;;42.22;23.55;;;;;;;0.52;100.00;99581.34;4995667;28;20631;-52
2021/01/12 06:29:33;;;;;;;37.72;21.70;;;;;;;0.54;100.00;99592.34;4996239;28;20112;-49
2021/01/12 06:32:00;;;;;;;36.42;20.95;;;;;;;0.48;100.00;99585.34;4999038;28;20042;-52
2021/01/12 06:34:28;;;;;;;40.40;22.40;;;;;;;0.50;100.00;99583.75;4995797;28;20059;-52
2021/01/12 06:36:56;;;;;;;36.97;22.17;;;;;;;0.55;100.00;99581.47;4998751;28;20042;-49
2021/01/12 06:39:29;;;;;;;40.65;21.70;;;;;;;0.58;100.00;99573.19;4999842;28;20673;-54
2021/01/12 06:41:56;;;;;;;40.95;23.52;;;;;;;0.62;100.00;99580.13;4994368;28;20096;-55
2021/01/12 06:44:25;;;;;;;37.35;20.90;;;;;;;0.56;100.00;99564.72;4996170;28;20076;-52
2021/01/12 06:46:54;;;;;;;39.13;20.90;;;;;;;0.59;100.00;99573.25;4997836;28;20305;-57
2021/01/12 06:49:23;;;;;;;30.75;18.50;;;;;;;0.50;100.00;99566.13;5001367;28;20498;-50
2021/01/12 06:52:00;;;;;;;36.70;21.48;;;;;;;0.58;100.00;99573.19;5004113;28;20058;-55
2021/01/12 06:54:37;;;;;;;41.03;22.90;;;;;;;0.50;100.00;99565.28;4991939;28;20046;-54
2021/01/12 06:57:04;;;;;;;;;;;;;;;0.47;100.00;99567.66;4995854;28;20085;-54
2021/01/12 06:59:34;;;;;;;39.35;21.20;;;;;;;0.47;100.00;99563.50;5000363;28;19926;-54
2021/01/12 07:02:05;;;;;;;39.45;21.95;;;;;;;0.54;100.00;99559.59;5002993;28;20057;-53
2021/01/12 07:04:32;;;;;;;37.95;20.85;;;;;;;0.57;100.00;99566.44;4999857;28;20061;-55
2021/01/12 07:07:02;;;;;;;39.53;22.02;;;;;;;0.58;100.00;99546.34;5002623;28;20049;-51
2021/01/12 07:09:30;;;;;;;38.88;20.85;;;;;;;0.59;100.00;99557.28;4999503;28;20539;-52
2021/01/12 07:12:08;;;;;;;38.92;22.65;;;;;;;0.55;100.00;99556.28;4998241;28;20136;-55
2021/01/12 07:14:45;;;;;;;37.67;22.00;;;;;;;0.66;100.00;99559.31;4999018;28;20115;-57
2021/01/12 07:17:12;;;;;;;34.75;21.52;;;;;;;0.55;100.00;99552.91;5001478;28;20452;-52
2021/01/12 07:19:38;;;;;;;38.47;20.77;;;;;;;0.68;100.00;99560.25;5088494;23;20458;-46
2021/01/12 07:22:10;;;;;;;36.80;20.17;;;;;;;0.67;100.00;99553.47;4989723;28;20050;-50
2021/01/12 07:24:43;;;;;;;35.60;19.80;;;;;;;0.68;100.00;99545.13;4989579;28;20104;-48
2021/01/12 07:27:18;;;;;;;33.55;18.60;;;;;;;0.66;100.00;99549.25;4989317;28;20082;-47
2021/01/12 07:29:52;;;;;;;34.17;19.15;;;;;;;0.66;100.00;99549.25;5004991;28;20042;-47
2021/01/12 07:32:26;;;;;;;34.03;19.10;;;;;;;0.70;100.00;99548.59;5013262;28;20054;-50
2021/01/12 07:34:59;;;;;;;33.78;20.13;;;;;;;0.68;100.00;99550.16;5007259;28;20050;-45
2021/01/12 07:37:34;;;;;;;30.05;18.67;;;;;;;0.74;100.00;99547.94;5007159;28;20073;-49
2021/01/12 07:40:02;;;;;;;32.08;18.35;;;;;;;0.74;100.00;99546.28;5003458;28;20050;-48
2021/01/12 07:42:29;;;;;;;30.15;17.42;;;;;;;0.76;100.00;99549.72;5003168;28;20041;-52
2021/01/12 07:44:55;;;;;;;29.10;16.63;;;;;;;0.71;100.00;99535.19;5003304;28;20111;-52
2021/01/12 07:47:24;;;;;;;28.33;17.67;;;;;;;0.72;100.00;99540.31;5007778;28;20050;-48
2021/01/12 07:49:51;;;;;;;30.73;17.20;;;;;;;0.72;100.00;99532.75;5008164;28;20132;-48
2021/01/12 07:52:18;;;;;;;27.38;15.77;;;;;;;0.75;100.00;99530.38;5008629;28;20049;-48
2021/01/12 07:54:45;;;;;;;19.15;12.15;;;;;;;0.81;100.00;99532.31;5008385;28;20755;-43
2021/01/12 07:57:12;;;;;;;25.35;16.15;;;;;;;0.90;100.00;99527.69;5008106;28;20603;-46
2021/01/12 07:59:40;;;;;;;22.10;14.80;;;;;;;0.87;100.00;99529.19;5008173;28;20049;-45
2021/01/12 08:02:08;;;;;;;24.85;15.20;;;;;;;0.98;100.00;99531.41;5016680;28;20064;-47
2021/01/12 08:04:38;;;;;;;23.08;13.30;;;;;;;0.89;100.00;99522.59;5008296;28;20050;-46
2021/01/12 08:07:05;;;;;;;18.85;12.32;;;;;;;0.92;100.00;99525.22;5006518;28;20041;-44
2021/01/12 08:09:31;;;;;;;17.90;12.82;;;;;;;0.88;100.00;99514.16;5004856;28;20058;-48
2021/01/12 08:12:02;;;;;;;18.83;12.27;;;;;;;0.89;100.00;99523.44;5007090;28;20687;-43
2021/01/12 08:14:29;;;;;;;18.08;11.25;;;;;;;0.88;100.00;99515.78;5015919;28;20041;-47
2021/01/12 08:16:56;;;;;;;18.38;12.82;;;;;;;0.91;100.00;99514.28;5018106;28;20520;-47
2021/01/12 08:19:25;;;;;;;21.85;13.23;;;;;;;0.89;100.00;99520.91;5006291;28;20058;-46
2021/01/12 08:21:53;;;;;;;16.25;10.18;;;;;;;0.92;100.00;99521.03;5004507;28;20228;-47
2021/01/12 08:24:23;;;;;;;17.75;9.35;;;;;;;0.91;100.00;99516.81;5004098;28;20409;-47
2021/01/12 08:26:52;;;;;;;19.45;13.18;;;;;;;0.90;100.00;99510.03;5003681;28;20132;-49
2021/01/12 08:29:27;;;;;;;10.48;7.93;;;;;;;0.87;100.00;99512.41;4990893;28;20433;-44
2021/01/12 08:32:02;;;;;;;16.05;10.73;;;;;;;0.96;100.00;99517.00;4999558;28;20050;-48
2021/01/12 08:34:36;;;;;;;16.65;11.02;;;;;;;0.99;100.00;99518.00;5019845;28;20509;-53
2021/01/12 08:37:05;;;;;;;12.25;8.15;;;;;;;0.97;100.00;99504.50;5001815;28;20053;-46
2021/01/12 08:39:33;;;;;;;15.45;10.20;;;;;;;1.02;100.00;99507.22;5030269;28;20045;-44
2021/01/12 08:42:04;;;;;;;13.95;10.55;;;;;;;0.75;100.00;99499.28;5018541;28;20104;-46
2021/01/12 08:44:35;;;;;;;10.77;7.35;;;;;;;1.00;100.00;99506.28;5017964;28;20046;-46
2021/01/12 08:47:06;;;;;;;17.85;10.52;;;;;;;1.05;100.00;99504.81;5030553;28;20045;-49
2021/01/12 08:49:34;;;;;;;13.40;8.77;;;;;;;1.04;100.00;99508.13;5006017;28;20045;-45
2021/01/12 08:52:03;;;;;;;15.23;9.55;;;;;;;1.05;100.00;99504.81;5033044;28;20041;-44
2021/01/12 08:54:30;;;;;;;12.43;9.55;;;;;;;1.07;100.00;99504.91;5013648;28;20045;-49
2021/01/12 08:57:02;;;;;;;15.93;10.73;;;;;;;1.08;100.00;99502.44;5018539;28;20049;-49
2021/01/12 08:59:31;;;;;;;14.65;9.93;;;;;;;1.10;100.00;99499.97;5019545;28;20416;-51
2021/01/12 09:01:59;;;;;;;13.32;9.40;;;;;;;1.09;100.00;99494.06;5018802;28;20463;-48
2021/01/12 09:04:30;;;;;;;11.75;8.77;;;;;;;1.04;100.00;99484.59;5019866;28;20111;-47
2021/01/12 09:07:06;;;;;;;11.88;8.25;;;;;;;1.13;100.00;99498.47;5016003;28;20060;-51
2021/01/12 09:09:34;;;;;;;12.80;7.82;;;;;;;1.16;100.00;99485.13;5016854;28;20057;-45
2021/01/12 09:12:09;;;;;;;12.77;8.32;;;;;;;1.12;100.00;99483.28;5006776;28;20041;-49
2021/01/12 09:14:47;;;;;;;11.75;9.18;;;;;;;1.21;100.00;99484.53;5019412;28;20697;-49
2021/01/12 09:17:20;;;;;;;5.68;3.90;;;;;;;1.11;100.00;99482.41;5017966;28;20071;-45
2021/01/12 09:19:53;;;;;;;9.63;7.53;;;;;;;1.18;100.00;99474.31;5019129;28;20073;-49
2021/01/12 09:22:21;;;;;;;10.95;7.32;;;;;;;1.18;100.00;99474.31;5017860;28;20170;-50
2021/01/12 09:24:53;;;;;;;8.85;6.55;;;;;;;1.16;100.00;99473.41;5017601;28;20064;-48
2021/01/12 09:27:27;;;;;;;11.68;7.78;;;;;;;1.13;100.00;99473.25;4997265;28;20520;-47
2021/01/12 09:29:54;;;;;;;10.35;7.78;;;;;;;1.16;100.00;99470.88;4998521;28;20453;-50
2021/01/12 09:32:37;;;;;;;9.90;6.15;;;;;;;1.08;100.00;99456.22;4998368;28;20522;-44
2021/01/12 09:35:06;;;;;;;10.25;8.10;;;;;;;1.19;100.00;99467.59;4999625;28;20057;-48
2021/01/12 09:37:33;;;;;;;10.88;7.32;;;;;;;1.10;100.00;99462.16;5014221;28;20074;-45
2021/01/12 09:40:05;;;;;;;8.63;5.22;;;;;;;1.12;100.00;99460.59;5014845;28;20046;-49
2021/01/12 09:42:31;;;;;;;9.15;6.90;;;;;;;1.14;100.00;99461.50;5019939;28;20069;-44
2021/01/12 09:45:07;;;;;;;9.20;7.22;;;;;;;1.22;100.00;99455.13;5023052;28;20049;-50
2021/01/12 09:47:35;;;;;;;8.13;6.78;;;;;;;1.14;100.00;99451.44;5022696;28;20068;-44
2021/01/12 09:50:05;;;;;;;10.82;7.28;;;;;;;1.27;100.00;99456.19;5023210;28;20049;-43
2021/01/12 09:52:32;;;;;;;9.90;6.80;;;;;;;1.34;100.00;99452.25;5019771;28;20049;-46
2021/01/12 09:54:59;;;;;;;7.97;6.22;;;;;;;1.28;100.00;99453.72;5023169;28;20049;-52
2021/01/12 09:57:25;;;;;;;8.52;6.65;;;;;;;1.30;100.00;99441.22;5023048;28;20371;-49
2021/01/12 09:59:52;;;;;;;7.40;6.07;;;;;;;1.36;100.00;99440.59;5022962;28;20045;-44
2021/01/12 10:02:18;;;;;;;8.00;6.15;;;;;;;1.33;100.00;99437.94;5023193;28;20057;-45
2021/01/12 10:04:45;;;;;;;8.93;7.28;;;;;;;1.34;100.00;99435.50;5022936;28;20045;-49
2021/01/12 10:07:11;;;;;;;9.35;6.13;;;;;;;1.39;100.00;99430.66;5022683;28;20062;-47
2021/01/12 10:09:37;;;;;;;9.30;6.75;;;;;;;1.43;100.00;99432.47;5022518;28;20056;-53
2021/01/12 10:12:05;;;;;;;7.65;5.30;;;;;;;1.42;100.00;99424.03;5023539;28;20053;-48
2021/01/12 10:14:31;;;;;;;9.68;7.43;;;;;;;1.45;100.00;99423.31;5022667;28;20624;-47
2021/01/12 10:16:57;;;;;;;10.15;6.85;;;;;;;1.56;100.00;99426.28;5022886;28;20041;-50
2021/01/12 10:19:24;;;;;;;8.73;7.15;;;;;;;1.58;100.00;99423.03;5022672;28;20057;-44
2021/01/12 10:21:51;;;;;;;8.48;7.22;;;;;;;1.64;100.00;99418.22;5022844;28;20677;-52
2021/01/12 10:24:17;;;;;;;8.13;6.78;;;;;;;1.66;100.00;99419.13;5022865;28;20057;-50
2021/01/12 10:26:45;;;;;;;6.60;5.55;;;;;;;1.59;100.00;99419.72;5022622;28;20045;-51
2021/01/12 10:29:12;;;;;;;8.40;6.88;;;;;;;1.66;100.00;99420.81;5022831;28;20123;-50
2021/01/12 10:31:43;;;;;;;7.22;5.10;;;;;;;1.62;100.00;99417.31;5022626;28;20045;-49
2021/01/12 10:34:10;;;;;;;10.80;7.18;;;;;;;1.60;100.00;99411.34;5023644;28;20080;-46
2021/01/12 10:36:36;;;;;;;7.40;6.07;;;;;;;1.53;100.00;99402.66;5026176;28;20052;-43
2021/01/12 10:39:07;;;;;;;7.93;6.53;;;;;;;1.50;100.00;99405.06;5026490;28;20060;-46
2021/01/12 10:41:39;;;;;;;9.18;7.07;;;;;;;1.49;100.00;99412.56;5026478;28;20049;-47
2021/01/12 10:44:06;;;;;;;8.55;7.13;;;;;;;1.53;100.00;99397.63;5026435;28;20042;-45
2021/01/12 10:46:33;;;;;;;10.30;7.78;;;;;;;1.59;100.00;99404.56;5026503;28;20045;-49
2021/01/12 10:49:00;;;;;;;8.50;7.20;;;;;;;1.40;100.00;99392.88;5018586;28;20493;-47
2021/01/12 10:51:26;;;;;;;9.20;7.57;;;;;;;1.52;100.00;99400.91;5021696;28;20049;-51
2021/01/12 10:53:52;;;;;;;11.02;7.60;;;;;;;1.60;100.00;99387.78;5026038;28;20171;-52
2021/01/12 10:56:19;;;;;;;9.27;7.45;;;;;;;1.41;100.00;99391.22;5025936;28;20097;-49
2021/01/12 10:58:45;;;;;;;7.85;6.35;;;;;;;1.37;100.00;99386.84;5025977;28;20045;-47
2021/01/12 11:01:15;;;;;;;7.75;6.15;;;;;;;1.32;100.00;99376.56;5026224;28;20075;-48
2021/01/12 11:03:44;;;;;;;7.85;6.57;;;;;;;1.31;100.00;99374.84;5025828;28;20037;-43
2021/01/12 11:06:10;;;;;;;8.63;6.20;;;;;;;1.26;100.00;99369.63;5025781;28;20049;-45
2021/01/12 11:08:37;;;;;;;9.40;7.47;;;;;;;1.26;100.00;99369.63;5025539;28;20049;-49
2021/01/12 11:11:04;;;;;;;8.93;7.35;;;;;;;1.36;100.00;99365.81;5026564;28;20045;-46
2021/01/12 11:13:30;;;;;;;7.50;5.53;;;;;;;1.38;100.00;99370.91;5022669;28;20103;-51
2021/01/12 11:15:57;;;;;;;9.43;7.10;;;;;;;1.34;100.00;99364.00;5025863;28;20104;-45
2021/01/12 11:18:26;;;;;;;10.05;7.78;;;;;;;1.56;100.00;99361.56;5025684;28;20053;-44
2021/01/12 11:20:54;;;;;;;7.22;5.57;;;;;;;1.52;100.00;99360.56;5025452;28;20042;-44
2021/01/12 11:23:20;;;;;;;9.25;6.50;;;;;;;1.60;100.00;99362.53;5025576;28;20535;-44
2021/01/12 11:25:48;;;;;;;8.93;7.00;;;;;;;1.69;100.00;99347.78;5025748;28;20045;-50
2021/01/12 11:28:14;;;;;;;7.05;6.25;;;;;;;1.65;100.00;99341.72;5025519;28;20103;-44